createdAt,value
2022-11-16T00:01:25.428Z,100429.84
2022-11-16T00:03:53.577Z,100433.31
2022-11-16T00:06:20.727Z,100434.31
2022-11-16T00:09:10.003Z,100444.06
2022-11-16T00:11:37.405Z,100437.19
2022-11-16T00:14:04.813Z,100427.72
2022-11-16T00:16:31.486Z,100427.84
2022-11-16T00:19:00.241Z,100423.63
2022-11-16T00:21:27.789Z,100426.31
2022-11-16T00:23:54.530Z,100422.03
2022-11-16T00:26:21.605Z,100418.56
2022-11-16T00:28:48.498Z,100413.34
2022-11-16T00:31:15.314Z,100419.34
2022-11-16T00:33:42.197Z,100421.13
2022-11-16T00:36:11.211Z,100421.13
2022-11-16T00:38:38.067Z,100415.94
2022-11-16T00:41:05.537Z,100414.19
2022-11-16T00:43:32.115Z,100424.72
2022-11-16T00:45:58.805Z,100429.94
2022-11-16T00:48:25.796Z,100417.81
2022-11-16T00:50:52.327Z,100416.97
2022-11-16T00:53:20.440Z,100410.97
2022-11-16T00:55:48.196Z,100409.25
2022-11-16T00:58:16.711Z,100403.97
2022-11-16T01:00:45.673Z,100399.56
2022-11-16T01:03:12.314Z,100399.63
2022-11-16T01:05:38.979Z,100404.91
2022-11-16T01:08:07.143Z,100405.81
2022-11-16T01:10:33.946Z,100405.94
2022-11-16T01:13:01.864Z,100402.47
2022-11-16T01:15:28.305Z,100402.47
2022-11-16T01:17:56.395Z,100395.53
2022-11-16T01:20:26.317Z,100400.75
2022-11-16T01:22:53.851Z,100402.59
2022-11-16T01:25:20.778Z,100403.47
2022-11-16T01:27:47.321Z,100402.75
2022-11-16T01:30:21.972Z,100401.94
2022-11-16T01:33:02.200Z,100401.09
2022-11-16T01:35:29.159Z,100401.88
2022-11-16T01:37:55.540Z,100395.88
2022-11-16T01:40:22.491Z,100394.09
2022-11-16T01:42:48.971Z,100395.88
2022-11-16T01:45:23.315Z,100391.56
2022-11-16T01:47:54.372Z,100395.16
2022-11-16T01:50:24.722Z,100387.31
2022-11-16T01:53:02.237Z,100390.00
2022-11-16T01:55:36.995Z,100388.28
2022-11-16T01:58:22.977Z,100376.22
2022-11-16T02:00:55.225Z,100370.25
2022-11-16T02:03:30.134Z,100365.06
2022-11-16T02:06:08.085Z,100358.16
2022-11-16T02:09:12.827Z,100357.25
2022-11-16T02:12:05.491Z,100352.00
2022-11-16T02:15:06.871Z,100347.69
2022-11-16T02:17:41.167Z,100338.22
2022-11-16T02:20:34.790Z,100345.16
2022-11-16T02:23:11.217Z,100339.13
2022-11-16T02:25:59.865Z,100343.50
2022-11-16T02:28:48.485Z,100338.34
2022-11-16T02:31:29.856Z,100339.25
2022-11-16T02:33:59.082Z,100339.28
2022-11-16T02:36:26.073Z,100341.09
2022-11-16T02:39:04.880Z,100333.25
2022-11-16T02:41:37.513Z,100328.94
2022-11-16T02:44:11.913Z,100327.19
2022-11-16T02:46:40.319Z,100330.69
2022-11-16T02:49:13.314Z,100324.63
2022-11-16T02:51:41.283Z,100334.22
2022-11-16T02:54:19.255Z,100326.44
2022-11-16T02:57:02.145Z,100323.72
2022-11-16T02:59:36.446Z,100320.31
2022-11-16T03:02:22.522Z,100326.44
2022-11-16T03:04:54.803Z,100334.22
2022-11-16T03:07:27.344Z,100334.22
2022-11-16T03:09:56.547Z,100328.94
2022-11-16T03:12:28.335Z,100335.03
2022-11-16T03:14:59.188Z,100330.59
2022-11-16T03:17:31.181Z,100327.94
2022-11-16T03:20:09.505Z,100323.59
2022-11-16T03:22:47.443Z,100317.50
2022-11-16T03:25:17.899Z,100320.19
2022-11-16T03:27:55.047Z,100324.63
2022-11-16T03:30:25.837Z,100337.63
2022-11-16T03:33:22.610Z,100339.34
2022-11-16T03:36:03.739Z,100326.25
2022-11-16T03:38:34.770Z,100317.50
2022-11-16T03:41:07.245Z,100316.66
2022-11-16T03:43:34.930Z,100310.56
2022-11-16T03:46:02.853Z,100316.72
2022-11-16T03:48:35.936Z,100321.22
2022-11-16T03:51:09.233Z,100316.00
2022-11-16T03:53:36.118Z,100327.34
2022-11-16T03:56:03.229Z,100336.09
2022-11-16T03:58:29.799Z,100330.84
2022-11-16T04:00:57.078Z,100324.75
2022-11-16T04:03:23.860Z,100321.22
2022-11-16T04:06:29.154Z,100319.44
2022-11-16T04:09:15.160Z,100324.69
2022-11-16T04:12:00.043Z,100315.97
2022-11-16T04:14:47.373Z,100312.50
2022-11-16T04:17:37.526Z,100319.59
2022-11-16T04:20:23.989Z,100313.50
2022-11-16T04:23:24.945Z,100325.75
2022-11-16T04:25:52.637Z,100331.03
2022-11-16T04:28:26.974Z,100327.66
2022-11-16T04:31:20.458Z,100327.84
2022-11-16T04:34:24.999Z,100330.53
2022-11-16T04:37:13.411Z,100322.69
2022-11-16T04:39:40.607Z,100318.38
2022-11-16T04:42:17.106Z,100322.66
2022-11-16T04:45:04.451Z,100326.13
2022-11-16T04:47:40.447Z,100326.13
2022-11-16T04:50:07.315Z,100332.16
2022-11-16T04:52:33.763Z,100335.63
2022-11-16T04:55:00.260Z,100326.00
2022-11-16T04:57:28.138Z,100331.25
2022-11-16T04:59:55.366Z,100322.53
2022-11-16T05:02:21.730Z,100326.91
2022-11-16T05:04:52.487Z,100328.75
2022-11-16T05:07:20.104Z,100329.59
2022-11-16T05:09:48.490Z,100325.22
2022-11-16T05:12:24.343Z,100335.75
2022-11-16T05:14:55.299Z,100330.53
2022-11-16T05:17:25.352Z,100330.53
2022-11-16T05:20:10.921Z,100331.44
2022-11-16T05:22:45.015Z,100333.16
2022-11-16T05:25:11.644Z,100334.03
2022-11-16T05:27:38.206Z,100334.97
2022-11-16T05:30:06.243Z,100331.50
2022-11-16T05:32:33.449Z,100335.88
2022-11-16T05:35:00.654Z,100329.00
2022-11-16T05:37:27.235Z,100329.06
2022-11-16T05:39:54.878Z,100328.25
2022-11-16T05:42:25.400Z,100335.22
2022-11-16T05:44:52.323Z,100330.91
2022-11-16T05:47:18.752Z,100330.97
2022-11-16T05:49:45.200Z,100325.81
2022-11-16T05:52:13.067Z,100328.47
2022-11-16T05:54:44.806Z,100325.00
2022-11-16T05:57:11.373Z,100326.84
2022-11-16T05:59:38.504Z,100320.72
2022-11-16T06:02:05.506Z,100321.56
2022-11-16T06:04:33.625Z,100323.41
2022-11-16T06:07:00.473Z,100327.78
2022-11-16T06:09:31.007Z,100324.38
2022-11-16T06:12:04.156Z,100327.81
2022-11-16T06:14:30.830Z,100326.91
2022-11-16T06:16:57.822Z,100326.91
2022-11-16T06:19:28.223Z,100332.09
2022-11-16T06:21:57.904Z,100332.94
2022-11-16T06:24:26.157Z,100325.94
2022-11-16T06:26:52.660Z,100327.78
2022-11-16T06:29:19.092Z,100326.00
2022-11-16T06:31:45.470Z,100327.72
2022-11-16T06:34:12.749Z,100334.69
2022-11-16T06:36:39.183Z,100343.44
2022-11-16T06:39:05.690Z,100344.38
2022-11-16T06:41:41.075Z,100340.84
2022-11-16T06:44:09.085Z,100335.66
2022-11-16T06:46:38.442Z,100337.78
2022-11-16T06:49:04.879Z,100339.59
2022-11-16T06:51:33.135Z,100340.34
2022-11-16T06:53:59.676Z,100342.84
2022-11-16T06:56:27.029Z,100343.66
2022-11-16T06:58:57.445Z,100345.34
2022-11-16T07:01:26.525Z,100341.88
2022-11-16T07:03:58.570Z,100337.69
2022-11-16T07:06:25.960Z,100341.16
2022-11-16T07:08:52.397Z,100338.47
2022-11-16T07:11:23.789Z,100327.13
2022-11-16T07:13:51.031Z,100334.09
2022-11-16T07:16:17.511Z,100331.50
2022-11-16T07:18:50.625Z,100340.13
2022-11-16T07:21:17.833Z,100342.72
2022-11-16T07:23:45.302Z,100345.34
2022-11-16T07:26:16.463Z,100343.66
2022-11-16T07:29:01.116Z,100350.56
2022-11-16T07:31:28.301Z,100344.38
2022-11-16T07:34:24.368Z,100338.22
2022-11-16T07:37:01.733Z,100339.94
2022-11-16T07:39:28.142Z,100341.69
2022-11-16T07:41:55.423Z,100349.47
2022-11-16T07:44:28.906Z,100341.63
2022-11-16T07:47:05.823Z,100339.94
2022-11-16T07:49:33.554Z,100336.47
2022-11-16T07:52:08.489Z,100346.97
2022-11-16T07:55:05.633Z,100346.06
2022-11-16T07:57:32.937Z,100346.06
2022-11-16T08:00:05.004Z,100340.09
2022-11-16T08:02:39.916Z,100341.88
2022-11-16T08:05:09.079Z,100345.41
2022-11-16T08:07:38.292Z,100347.13
2022-11-16T08:10:05.909Z,100352.19
2022-11-16T08:12:32.620Z,100341.88
2022-11-16T08:14:59.059Z,100357.56
2022-11-16T08:17:25.426Z,100352.31
2022-11-16T08:19:53.642Z,100349.66
2022-11-16T08:22:20.856Z,100356.56
2022-11-16T08:24:47.726Z,100349.59
2022-11-16T08:27:16.895Z,100352.19
2022-11-16T08:29:45.433Z,100358.47
2022-11-16T08:32:12.966Z,100362.06
2022-11-16T08:34:39.538Z,100364.56
2022-11-16T08:37:06.050Z,100358.41
2022-11-16T08:39:38.534Z,100367.22
2022-11-16T08:42:05.378Z,100368.94
2022-11-16T08:44:31.950Z,100362.91
2022-11-16T08:47:02.265Z,100358.47
2022-11-16T08:49:35.544Z,100361.03
2022-11-16T08:52:02.061Z,100363.56
2022-11-16T08:54:30.275Z,100368.69
2022-11-16T08:56:57.057Z,100364.41
2022-11-16T08:59:23.614Z,100373.41
2022-11-16T09:01:52.364Z,100372.63
2022-11-16T09:04:18.865Z,100376.97
2022-11-16T09:06:45.991Z,100372.81
2022-11-16T09:09:12.373Z,100374.56
2022-11-16T09:11:39.070Z,100363.28
2022-11-16T09:14:05.491Z,100371.16
2022-11-16T09:16:31.978Z,100375.50
2022-11-16T09:18:58.342Z,100380.72
2022-11-16T09:21:27.464Z,100381.69
2022-11-16T09:23:55.423Z,100382.59
2022-11-16T09:26:23.207Z,100382.50
2022-11-16T09:28:58.065Z,100382.38
2022-11-16T09:31:27.408Z,100380.53
2022-11-16T09:33:58.068Z,100387.59
2022-11-16T09:36:26.125Z,100390.25
2022-11-16T09:41:55.823Z,100393.81
2022-11-16T09:44:40.766Z,100396.47
2022-11-16T09:47:18.349Z,100393.91
2022-11-16T09:49:52.215Z,100403.41
2022-11-16T09:52:41.108Z,100400.03
2022-11-16T09:55:26.218Z,100410.78
2022-11-16T09:57:59.890Z,100405.63
2022-11-16T10:00:27.925Z,100411.69
2022-11-16T10:03:09.542Z,100396.88
2022-11-16T10:05:43.139Z,100408.13
2022-11-16T10:08:15.563Z,100406.41
2022-11-16T10:10:55.868Z,100409.03
2022-11-16T10:13:42.711Z,100411.69
2022-11-16T10:16:34.811Z,100414.31
2022-11-16T10:19:36.205Z,100416.06
2022-11-16T10:22:17.871Z,100417.81
2022-11-16T10:24:58.565Z,100418.06
2022-11-16T10:27:41.476Z,100419.03
2022-11-16T10:30:19.633Z,100416.47
2022-11-16T10:32:59.310Z,100423.56
2022-11-16T10:35:31.974Z,100414.81
2022-11-16T10:38:00.266Z,100411.25
2022-11-16T10:40:36.775Z,100413.81
2022-11-16T10:43:14.337Z,100417.38
2022-11-16T10:46:12.583Z,100414.78
2022-11-16T10:48:51.357Z,100413.94
2022-11-16T10:51:18.011Z,100411.25
2022-11-16T10:53:44.544Z,100412.06
2022-11-16T10:56:20.255Z,100416.31
2022-11-16T10:58:55.736Z,100412.72
2022-11-16T11:01:39.058Z,100408.31
2022-11-16T11:04:26.054Z,100403.09
2022-11-16T11:06:57.576Z,100403.09
2022-11-16T11:09:35.930Z,100403.94
2022-11-16T11:12:35.162Z,100403.03
2022-11-16T11:15:12.656Z,100411.69
2022-11-16T11:17:45.133Z,100407.31
2022-11-16T11:20:14.810Z,100401.13
2022-11-16T11:22:47.140Z,100406.31
2022-11-16T11:25:21.838Z,100407.13
2022-11-16T11:27:49.478Z,100394.81
2022-11-16T11:30:21.401Z,100394.75
2022-11-16T11:32:48.880Z,100393.16
2022-11-16T11:35:30.261Z,100389.69
2022-11-16T11:38:03.324Z,100393.97
2022-11-16T11:40:32.757Z,100386.94
2022-11-16T11:43:05.468Z,100389.47
2022-11-16T11:45:43.139Z,100379.88
2022-11-16T11:48:21.952Z,100384.22
2022-11-16T11:50:54.949Z,100376.41
2022-11-16T11:53:36.086Z,100385.88
2022-11-16T11:56:02.939Z,100387.69
2022-11-16T11:58:32.779Z,100380.72
2022-11-16T12:01:03.354Z,100386.75
2022-11-16T12:03:47.042Z,100389.28
2022-11-16T12:06:22.429Z,100384.91
2022-11-16T12:08:58.250Z,100381.34
2022-11-16T12:11:52.932Z,100375.19
2022-11-16T12:14:46.136Z,100376.88
2022-11-16T12:17:24.216Z,100384.66
2022-11-16T12:20:00.886Z,100385.53
2022-11-16T12:22:59.721Z,100385.47
2022-11-16T12:25:44.461Z,100375.88
2022-11-16T12:28:19.878Z,100382.78
2022-11-16T12:31:21.781Z,100376.84
2022-11-16T12:34:26.836Z,100375.00
2022-11-16T12:37:34.685Z,100367.13
2022-11-16T12:40:21.663Z,100371.50
2022-11-16T12:43:03.398Z,100374.09
2022-11-16T12:45:38.211Z,100377.63
2022-11-16T12:48:23.914Z,100375.06
2022-11-16T12:50:55.145Z,100372.34
2022-11-16T12:53:52.623Z,100374.06
2022-11-16T12:56:48.702Z,100371.53
2022-11-16T12:59:27.507Z,100369.00
2022-11-16T13:02:31.693Z,100366.25
2022-11-16T13:05:23.351Z,100366.25
2022-11-16T13:07:57.436Z,100365.34
2022-11-16T13:10:35.130Z,100369.69
2022-11-16T13:13:30.114Z,100370.50
2022-11-16T13:15:58.626Z,100379.13
2022-11-16T13:18:27.305Z,100377.44
2022-11-16T13:21:11.229Z,100374.88
2022-11-16T13:24:07.992Z,100366.31
2022-11-16T13:26:54.605Z,100367.13
2022-11-16T13:29:39.623Z,100357.44
2022-11-16T13:32:18.502Z,100366.13
2022-11-16T13:34:45.969Z,100358.34
2022-11-16T13:37:37.818Z,100365.34
2022-11-16T13:40:04.882Z,100361.88
2022-11-16T13:42:34.200Z,100355.81
2022-11-16T13:45:08.583Z,100360.19
2022-11-16T13:47:37.081Z,100367.13
2022-11-16T13:50:06.961Z,100365.34
2022-11-16T13:55:35.550Z,100374.81
2022-11-16T13:58:05.375Z,100364.41
2022-11-16T14:00:38.645Z,100364.38
2022-11-16T14:03:38.380Z,100362.59
2022-11-16T14:06:25.595Z,100358.34
2022-11-16T14:08:54.485Z,100357.53
2022-11-16T14:11:38.763Z,100357.63
2022-11-16T14:14:11.881Z,100359.44
2022-11-16T14:16:51.104Z,100364.78
2022-11-16T14:19:49.167Z,100360.44
2022-11-16T14:22:51.021Z,100365.78
2022-11-16T14:25:31.806Z,100362.31
2022-11-16T14:28:26.786Z,100361.34
2022-11-16T14:31:09.706Z,100364.00
2022-11-16T14:33:37.767Z,100377.06
2022-11-16T14:36:09.230Z,100363.22
2022-11-16T14:38:38.641Z,100371.06
2022-11-16T14:41:07.233Z,100364.88
2022-11-16T14:43:49.567Z,100364.91
2022-11-16T14:46:22.203Z,100364.06
2022-11-16T14:48:49.447Z,100357.28
2022-11-16T14:51:31.668Z,100346.94
2022-11-16T14:54:02.499Z,100353.00
2022-11-16T14:56:29.039Z,100350.53
2022-11-16T14:58:57.818Z,100342.81
2022-11-16T15:01:28.246Z,100347.97
2022-11-16T15:04:06.062Z,100342.69
2022-11-16T15:06:40.569Z,100343.53
2022-11-16T15:09:07.108Z,100339.94
2022-11-16T15:12:02.409Z,100337.28
2022-11-16T15:14:31.831Z,100344.38
2022-11-16T15:16:59.908Z,100350.59
2022-11-16T15:19:30.283Z,100352.53
2022-11-16T15:21:59.015Z,100354.41
2022-11-16T15:24:33.814Z,100348.41
2022-11-16T15:27:26.902Z,100356.28
2022-11-16T15:29:53.363Z,100357.09
2022-11-16T15:32:19.752Z,100351.84
2022-11-16T15:34:50.399Z,100349.19
2022-11-16T15:37:27.283Z,100356.19
2022-11-16T15:39:54.222Z,100347.53
2022-11-16T15:42:22.612Z,100352.91
2022-11-16T15:44:49.895Z,100355.69
2022-11-16T15:47:16.823Z,100338.38
2022-11-16T15:49:46.450Z,100347.06
2022-11-16T15:52:12.900Z,100348.69
2022-11-16T15:54:57.771Z,100349.53
2022-11-16T15:57:24.909Z,100351.31
2022-11-16T15:59:56.434Z,100346.09
2022-11-16T16:02:27.458Z,100341.84
2022-11-16T16:04:53.899Z,100350.72
2022-11-16T16:07:40.797Z,100357.75
2022-11-16T16:10:27.766Z,100360.28
2022-11-16T16:13:00.105Z,100360.22
2022-11-16T16:15:29.903Z,100348.75
2022-11-16T16:17:57.780Z,100349.53
2022-11-16T16:20:27.524Z,100346.94
2022-11-16T16:23:05.339Z,100348.72
2022-11-16T16:25:33.941Z,100346.97
2022-11-16T16:28:00.616Z,100339.16
2022-11-16T16:30:29.072Z,100343.41
2022-11-16T16:32:55.772Z,100346.94
2022-11-16T16:35:24.412Z,100349.53
2022-11-16T16:37:56.578Z,100353.06
2022-11-16T16:40:22.943Z,100356.53
2022-11-16T16:42:49.368Z,100358.19
2022-11-16T16:45:20.076Z,100350.41
2022-11-16T16:47:46.634Z,100350.44
2022-11-16T16:50:13.357Z,100356.53
2022-11-16T16:52:39.793Z,100356.66
2022-11-16T16:55:06.441Z,100363.63
2022-11-16T16:57:32.896Z,100360.16
2022-11-16T16:59:59.410Z,100362.72
2022-11-16T17:02:26.700Z,100373.19
2022-11-16T17:04:53.062Z,100374.81
2022-11-16T17:07:19.554Z,100370.63
2022-11-16T17:09:46.064Z,100366.44
2022-11-16T17:12:12.698Z,100374.25
2022-11-16T17:14:39.782Z,100356.84
2022-11-16T17:17:06.106Z,100352.47
2022-11-16T17:19:32.570Z,100357.69
2022-11-16T17:22:00.015Z,100362.91
2022-11-16T17:24:26.518Z,100370.72
2022-11-16T17:26:53.353Z,100366.34
2022-11-16T17:29:19.804Z,100376.75
2022-11-16T17:31:47.122Z,100374.13
2022-11-16T17:34:14.412Z,100376.81
2022-11-16T17:36:41.875Z,100378.69
2022-11-16T17:39:08.491Z,100378.69
2022-11-16T17:41:34.971Z,100370.84
2022-11-16T17:44:01.378Z,100372.56
2022-11-16T17:46:28.905Z,100376.16
2022-11-16T17:48:55.552Z,100381.38
2022-11-16T17:51:24.272Z,100373.56
2022-11-16T17:53:50.734Z,100375.31
2022-11-16T17:56:20.006Z,100379.69
2022-11-16T17:58:46.518Z,100387.50
2022-11-16T18:01:13.639Z,100384.84
2022-11-16T18:03:40.214Z,100390.91
2022-11-16T18:06:09.378Z,100393.47
2022-11-16T18:08:36.762Z,100390.84
2022-11-16T18:11:13.087Z,100399.56
2022-11-16T18:13:39.670Z,100401.41
2022-11-16T18:16:09.690Z,100399.03
2022-11-16T18:18:36.933Z,100395.56
2022-11-16T18:21:03.467Z,100397.31
2022-11-16T18:23:29.950Z,100389.50
2022-11-16T18:25:56.642Z,100400.78
2022-11-16T18:28:23.286Z,100386.94
2022-11-16T18:30:49.700Z,100399.19
2022-11-16T18:33:16.563Z,100384.47
2022-11-16T18:35:43.812Z,100388.22
2022-11-16T18:38:13.146Z,100380.47
2022-11-16T18:40:42.295Z,100384.78
2022-11-16T18:43:12.992Z,100383.00
2022-11-16T18:45:39.348Z,100382.94
2022-11-16T18:48:05.967Z,100388.91
2022-11-16T18:50:32.441Z,100381.94
2022-11-16T18:52:58.874Z,100381.03
2022-11-16T18:55:25.238Z,100385.41
2022-11-16T18:57:51.648Z,100379.34
2022-11-16T19:00:19.420Z,100386.38
2022-11-16T19:02:45.782Z,100380.25
2022-11-16T19:05:12.297Z,100384.66
2022-11-16T19:07:38.823Z,100380.38
2022-11-16T19:10:05.764Z,100389.16
2022-11-16T19:12:32.126Z,100389.19
2022-11-16T19:14:58.673Z,100376.19
2022-11-16T19:17:25.130Z,100382.28
2022-11-16T19:19:51.499Z,100377.09
2022-11-16T19:22:18.337Z,100372.78
2022-11-16T19:24:44.699Z,100364.13
2022-11-16T19:27:12.111Z,100365.06
2022-11-16T19:29:38.495Z,100370.28
2022-11-16T19:32:05.037Z,100372.84
2022-11-16T19:34:33.501Z,100372.84
2022-11-16T19:37:00.220Z,100367.63
2022-11-16T19:39:26.698Z,100366.72
2022-11-16T19:41:53.051Z,100366.72
2022-11-16T19:44:20.052Z,100367.59
2022-11-16T19:46:46.563Z,100362.38
2022-11-16T19:49:19.925Z,100361.50
2022-11-16T19:51:46.723Z,100370.25
2022-11-16T19:54:14.782Z,100351.28
2022-11-16T19:56:42.257Z,100363.53
2022-11-16T19:59:09.200Z,100361.03
2022-11-16T20:01:35.893Z,100369.75
2022-11-16T20:04:03.563Z,100361.19
2022-11-16T20:06:35.342Z,100368.22
2022-11-16T20:09:08.468Z,100360.44
2022-11-16T20:11:37.013Z,100358.91
2022-11-16T20:14:05.331Z,100367.69
2022-11-16T20:16:38.621Z,100363.38
2022-11-16T20:19:07.590Z,100353.00
2022-11-16T20:21:36.968Z,100359.97
2022-11-16T20:24:06.749Z,100349.53
2022-11-16T20:26:35.685Z,100353.84
2022-11-16T20:29:02.860Z,100351.25
2022-11-16T20:31:31.281Z,100346.84
2022-11-16T20:34:03.188Z,100344.28
2022-11-16T20:36:31.146Z,100350.41
2022-11-16T20:38:58.829Z,100346.97
2022-11-16T20:41:33.069Z,100342.66
2022-11-16T20:44:01.495Z,100345.31
2022-11-16T20:46:29.907Z,100341.03
2022-11-16T20:48:59.202Z,100346.28
2022-11-16T20:51:26.049Z,100345.47
2022-11-16T20:53:52.769Z,100352.50
2022-11-16T20:56:20.447Z,100349.06
2022-11-16T20:58:48.355Z,100348.19
2022-11-16T21:01:20.908Z,100343.00
2022-11-16T21:03:47.350Z,100344.75
2022-11-16T21:06:15.119Z,100342.22
2022-11-16T21:08:41.597Z,100351.75
2022-11-16T21:11:19.838Z,100347.31
2022-11-16T21:14:06.157Z,100350.81
2022-11-16T21:16:33.669Z,100346.53
2022-11-16T21:19:00.656Z,100346.75
2022-11-16T21:21:27.253Z,100332.88
2022-11-16T21:23:55.027Z,100321.53
2022-11-16T21:26:24.156Z,100333.59
2022-11-16T21:28:51.303Z,100326.63
2022-11-16T21:31:25.599Z,100337.94
2022-11-16T21:33:53.169Z,100338.84
2022-11-16T21:36:24.774Z,100331.88
2022-11-16T21:38:51.778Z,100333.63
2022-11-16T21:41:19.677Z,100326.75
2022-11-16T21:43:46.098Z,100320.63
2022-11-16T21:46:14.646Z,100318.94
2022-11-16T21:48:41.342Z,100314.56
2022-11-16T21:51:08.935Z,100316.28
2022-11-16T21:53:36.219Z,100308.47
2022-11-16T21:56:04.703Z,100311.97
2022-11-16T21:58:31.363Z,100313.75
2022-11-16T22:00:59.852Z,100304.25
2022-11-16T22:03:30.890Z,100307.75
2022-11-16T22:06:21.467Z,100311.22
2022-11-16T22:08:48.204Z,100316.47
2022-11-16T22:11:15.520Z,100310.38
2022-11-16T22:13:42.414Z,100316.56
2022-11-16T22:16:11.459Z,100318.34
2022-11-16T22:18:38.233Z,100317.44
2022-11-16T22:21:04.886Z,100310.50
2022-11-16T22:23:31.802Z,100310.56
2022-11-16T22:26:03.831Z,100311.41
2022-11-16T22:28:31.775Z,100316.66
2022-11-16T22:31:06.784Z,100310.63
2022-11-16T22:33:35.008Z,100321.91
2022-11-16T22:36:01.989Z,100324.59
2022-11-16T22:38:28.646Z,100320.34
2022-11-16T22:40:57.035Z,100316.88
2022-11-16T22:43:28.620Z,100309.06
2022-11-16T22:45:58.867Z,100303.81
2022-11-16T22:48:36.513Z,100299.50
2022-11-16T22:51:23.941Z,100309.00
2022-11-16T22:53:54.668Z,100308.03
2022-11-16T22:56:21.114Z,100297.59
2022-11-16T22:58:48.698Z,100295.09
2022-11-16T23:01:15.293Z,100295.94
2022-11-16T23:03:41.904Z,100295.94
2022-11-16T23:06:10.300Z,100285.50
2022-11-16T23:08:36.915Z,100288.97
2022-11-16T23:11:25.807Z,100281.97
2022-11-16T23:14:12.518Z,100282.00
2022-11-16T23:16:39.887Z,100278.53
2022-11-16T23:19:26.283Z,100267.28
2022-11-16T23:22:11.282Z,100263.81
2022-11-16T23:24:56.126Z,100268.22
2022-11-16T23:27:31.763Z,100262.97
2022-11-16T23:30:01.106Z,100261.31
2022-11-16T23:32:28.783Z,100261.38
2022-11-16T23:34:55.158Z,100262.22
2022-11-16T23:37:21.965Z,100256.16
2022-11-16T23:39:48.449Z,100256.16
2022-11-16T23:42:40.971Z,100249.25
2022-11-16T23:45:07.621Z,100248.28
2022-11-16T23:47:33.956Z,100248.22
2022-11-16T23:50:00.384Z,100242.97
2022-11-16T23:52:26.816Z,100230.78
2022-11-16T23:54:53.535Z,100235.19
2022-11-16T23:57:20.184Z,100226.53
2022-11-16T23:59:46.567Z,100229.19
